Time;durP1;ratioP1;P1;durP2;ratioP2;P2;SDS_P1;SDS_P2;PMS_P1;PMS_P2;Temp;Humidity;BMP_temperature;BMP_pressure;BME280_temperature;BME280_humidity;BME280_pressure;Samples;Min_cycle;Max_cycle;Signal;HPM_P1;HPM_P2
2023/12/19 00:02:02;;;;;;;;;19.75;17.00;;;;;;;;5098084;27;45664;-71
2023/12/19 00:04:28;;;;;;;;;18.75;17.25;;;;;;;;5098739;27;45324;-73
2023/12/19 00:06:54;;;;;;;;;21.00;17.00;;;;;;;;5098980;27;45415;-73
2023/12/19 00:09:21;;;;;;;;;17.25;15.50;;;;;;;;5098946;27;45279;-73
2023/12/19 00:11:47;;;;;;;;;27.00;22.00;;;;;;;;5099055;27;45666;-72
2023/12/19 00:14:12;;;;;;;;;33.50;30.00;;;;;;;;5098306;27;45571;-73
2023/12/19 00:16:38;;;;;;;;;35.75;31.25;;;;;;;;5098401;27;45475;-85
2023/12/19 00:19:03;;;;;;;;;34.75;30.50;;;;;;;;5098859;27;45409;-87
2023/12/19 00:21:29;;;;;;;;;33.25;30.50;;;;;;;;5098942;27;45547;-73
2023/12/19 00:23:54;;;;;;;;;29.75;27.50;;;;;;;;5098511;27;45483;-81
2023/12/19 00:26:19;;;;;;;;;34.50;30.25;;;;;;;;5098514;27;45280;-87
2023/12/19 00:28:45;;;;;;;;;35.00;30.25;;;;;;;;5098714;27;45360;-85
2023/12/19 00:31:17;;;;;;;;;30.25;27.75;;;;;;;;5099019;27;45298;-86
2023/12/19 00:33:42;;;;;;;;;21.50;21.25;;;;;;;;5095710;27;45480;-73
2023/12/19 00:36:08;;;;;;;;;21.50;20.25;;;;;;;;5097164;27;45506;-87
2023/12/19 00:38:33;;;;;;;;;34.75;31.75;;;;;;;;5098637;27;45446;-86
2023/12/19 00:40:59;;;;;;;;;27.25;24.25;;;;;;;;5098536;27;45447;-85
2023/12/19 00:43:24;;;;;;;;;27.00;24.50;;;;;;;;5098088;27;45888;-86
2023/12/19 00:45:49;;;;;;;;;28.50;26.25;;;;;;;;5096782;27;45456;-73
2023/12/19 00:48:15;;;;;;;;;29.00;27.00;;;;;;;;5098266;27;45468;-85
2023/12/19 00:50:40;;;;;;;;;21.25;21.00;;;;;;;;5098458;27;45571;-87
2023/12/19 00:53:06;;;;;;;;;27.00;23.25;;;;;;;;5097855;27;46044;-86
2023/12/19 00:55:31;;;;;;;;;19.25;19.00;;;;;;;;5096832;27;45633;-85
2023/12/19 00:57:57;;;;;;;;;21.25;19.00;;;;;;;;5097916;27;45469;-86
2023/12/19 01:00:23;;;;;;;;;23.50;22.00;;;;;;;;5098029;27;45546;-85
2023/12/19 01:02:48;;;;;;;;;17.75;16.00;;;;;;;;5096426;27;45559;-72
2023/12/19 01:05:13;;;;;;;;;20.00;18.75;;;;;;;;5098159;27;45460;-86
2023/12/19 01:07:39;;;;;;;;;15.50;15.00;;;;;;;;5098331;27;45336;-84
2023/12/19 01:10:04;;;;;;;;;15.50;14.50;;;;;;;;5098268;27;45501;-86
2023/12/19 01:12:30;;;;;;;;;15.25;14.75;;;;;;;;5097821;27;46063;-73
2023/12/19 01:14:55;;;;;;;;;13.50;11.25;;;;;;;;5097728;27;45419;-86
2023/12/19 01:17:20;;;;;;;;;15.00;12.25;;;;;;;;5097822;27;45466;-81
2023/12/19 01:19:46;;;;;;;;;14.75;14.75;;;;;;;;5098082;27;45374;-85
2023/12/19 01:22:11;;;;;;;;;18.25;15.50;;;;;;;;5097886;27;46074;-86
2023/12/19 01:24:36;;;;;;;;;20.50;16.50;;;;;;;;5097684;27;45306;-85
2023/12/19 01:27:02;;;;;;;;;18.75;18.00;;;;;;;;5095906;27;45428;-85
2023/12/19 01:29:27;;;;;;;;;21.25;17.25;;;;;;;;5097326;27;45421;-86
2023/12/19 01:31:53;;;;;;;;;17.25;16.25;;;;;;;;5097378;27;45513;-86
2023/12/19 01:34:18;;;;;;;;;22.25;19.75;;;;;;;;5097308;27;45396;-74
2023/12/19 01:36:45;;;;;;;;;39.00;31.25;;;;;;;;5096568;27;45349;-73
2023/12/19 01:39:11;;;;;;;;;27.75;25.00;;;;;;;;5098066;27;45309;-85
2023/12/19 01:41:36;;;;;;;;;27.00;25.00;;;;;;;;5096668;27;46379;-73
2023/12/19 01:44:02;;;;;;;;;34.75;31.00;;;;;;;;5097919;27;45425;-73
2023/12/19 01:46:27;;;;;;;;;22.50;20.50;;;;;;;;5098193;27;45345;-72
2023/12/19 01:48:53;;;;;;;;;21.75;20.25;;;;;;;;5096690;27;45558;-86
2023/12/19 01:51:19;;;;;;;;;22.50;20.75;;;;;;;;5098030;27;45270;-73
2023/12/19 01:53:47;;;;;;;;;18.00;17.00;;;;;;;;5098131;27;45478;-74
2023/12/19 01:56:13;;;;;;;;;16.50;15.25;;;;;;;;5098430;27;45459;-72
2023/12/19 01:58:38;;;;;;;;;18.75;16.25;;;;;;;;5098235;27;45342;-73
2023/12/19 02:01:04;;;;;;;;;16.75;16.50;;;;;;;;5096478;27;45505;-80
2023/12/19 02:03:31;;;;;;;;;17.25;15.75;;;;;;;;5096431;27;45493;-82
2023/12/19 02:05:57;;;;;;;;;16.00;15.00;;;;;;;;5097581;27;45415;-72
2023/12/19 02:08:22;;;;;;;;;14.50;13.00;;;;;;;;5097917;27;45492;-73
2023/12/19 02:10:48;;;;;;;;;14.00;13.25;;;;;;;;5097660;27;45381;-73
2023/12/19 02:13:13;;;;;;;;;17.00;16.00;;;;;;;;5098072;27;45492;-73
2023/12/19 02:15:39;;;;;;;;;17.25;15.50;;;;;;;;5098088;27;45324;-72
2023/12/19 02:18:14;;;;;;;;;18.50;17.75;;;;;;;;5096652;27;45256;-73
2023/12/19 02:20:40;;;;;;;;;15.00;13.75;;;;;;;;5096212;27;45461;-73
2023/12/19 02:23:05;;;;;;;;;13.25;12.50;;;;;;;;5097531;27;45369;-86
2023/12/19 02:25:30;;;;;;;;;15.00;13.00;;;;;;;;5097758;27;45390;-72
2023/12/19 02:27:57;;;;;;;;;15.00;13.75;;;;;;;;5097828;27;45233;-73
2023/12/19 02:30:22;;;;;;;;;16.00;14.75;;;;;;;;5097535;27;45452;-73
2023/12/19 02:32:47;;;;;;;;;19.75;16.25;;;;;;;;5097777;27;45368;-73
2023/12/19 02:35:13;;;;;;;;;16.50;14.25;;;;;;;;5097675;27;45377;-72
2023/12/19 02:37:38;;;;;;;;;14.50;13.50;;;;;;;;5097979;27;45448;-72
2023/12/19 02:40:04;;;;;;;;;18.50;16.50;;;;;;;;5098577;27;45522;-73
2023/12/19 02:42:29;;;;;;;;;17.25;16.25;;;;;;;;5100865;27;45530;-73
2023/12/19 02:44:54;;;;;;;;;15.25;14.50;;;;;;;;5101233;27;45253;-85
2023/12/19 02:47:20;;;;;;;;;15.25;14.25;;;;;;;;5101069;27;45506;-72
2023/12/19 02:49:45;;;;;;;;;14.75;14.50;;;;;;;;5101369;27;45440;-86
2023/12/19 02:52:11;;;;;;;;;15.25;13.50;;;;;;;;5101035;27;45507;-72
2023/12/19 02:54:36;;;;;;;;;15.00;13.00;;;;;;;;5100630;27;45328;-73
2023/12/19 02:57:01;;;;;;;;;18.00;16.75;;;;;;;;5101105;27;45384;-86
2023/12/19 02:59:27;;;;;;;;;15.00;14.00;;;;;;;;5100786;27;45329;-73
2023/12/19 03:01:52;;;;;;;;;14.50;13.75;;;;;;;;5099200;27;45487;-73
2023/12/19 03:04:17;;;;;;;;;17.25;16.25;;;;;;;;5100996;27;45399;-73
2023/12/19 03:06:43;;;;;;;;;13.25;12.75;;;;;;;;5101067;27;45423;-86
2023/12/19 03:09:08;;;;;;;;;14.25;13.75;;;;;;;;5100539;27;45623;-73
2023/12/19 03:11:37;;;;;;;;;15.75;13.75;;;;;;;;5100630;27;45213;-84
2023/12/19 03:14:02;;;;;;;;;17.00;14.50;;;;;;;;5100483;27;45312;-76
2023/12/19 03:16:27;;;;;;;;;15.00;15.00;;;;;;;;5099269;27;45426;-72
2023/12/19 03:18:53;;;;;;;;;14.00;12.50;;;;;;;;5100452;27;45440;-85
2023/12/19 03:21:18;;;;;;;;;15.75;15.50;;;;;;;;5100699;27;45349;-79
2023/12/19 03:23:43;;;;;;;;;15.00;12.50;;;;;;;;5100579;27;45543;-82
2023/12/19 03:26:09;;;;;;;;;16.25;16.00;;;;;;;;5100590;27;45407;-73
2023/12/19 03:28:35;;;;;;;;;13.50;11.75;;;;;;;;5098932;27;47821;-73
2023/12/19 03:31:01;;;;;;;;;15.00;15.00;;;;;;;;5098935;27;45717;-73
2023/12/19 03:33:26;;;;;;;;;11.50;11.50;;;;;;;;5100168;27;45520;-75
2023/12/19 03:35:52;;;;;;;;;14.50;12.50;;;;;;;;5099417;27;45469;-73
2023/12/19 03:38:17;;;;;;;;;10.75;9.00;;;;;;;;5100469;27;45434;-73
2023/12/19 03:40:42;;;;;;;;;13.00;12.25;;;;;;;;5100325;27;45324;-73
2023/12/19 03:43:08;;;;;;;;;13.75;12.25;;;;;;;;5100095;27;45400;-76
2023/12/19 03:45:34;;;;;;;;;13.00;13.00;;;;;;;;5100370;27;45434;-86
2023/12/19 03:47:59;;;;;;;;;16.00;13.25;;;;;;;;5099375;27;45520;-85
2023/12/19 03:50:24;;;;;;;;;9.50;9.00;;;;;;;;5099268;27;45384;-72
2023/12/19 03:52:50;;;;;;;;;14.75;12.25;;;;;;;;5100310;27;45328;-73
2023/12/19 03:55:15;;;;;;;;;12.25;10.25;;;;;;;;5099908;27;45164;-72
2023/12/19 03:57:41;;;;;;;;;12.75;11.00;;;;;;;;5099757;27;45394;-72
2023/12/19 04:00:07;;;;;;;;;12.50;11.00;;;;;;;;5099829;27;45230;-73
2023/12/19 04:02:32;;;;;;;;;14.00;12.25;;;;;;;;5099797;27;45408;-85
2023/12/19 04:04:57;;;;;;;;;15.25;11.75;;;;;;;;5100026;27;45491;-73
2023/12/19 04:07:23;;;;;;;;;15.75;14.25;;;;;;;;5099707;27;46106;-73
2023/12/19 04:09:48;;;;;;;;;15.50;14.00;;;;;;;;5099774;27;45448;-73
2023/12/19 04:12:14;;;;;;;;;19.50;15.75;;;;;;;;5099870;27;45405;-72
2023/12/19 04:14:39;;;;;;;;;12.50;12.50;;;;;;;;5099821;27;45549;-85
2023/12/19 04:17:04;;;;;;;;;16.50;15.75;;;;;;;;5099584;27;46405;-74
2023/12/19 04:19:30;;;;;;;;;17.25;15.50;;;;;;;;5099413;27;45452;-73
2023/12/19 04:21:57;;;;;;;;;18.00;15.00;;;;;;;;5099727;27;45386;-73
2023/12/19 04:24:23;;;;;;;;;14.75;13.50;;;;;;;;5100060;27;45221;-72
2023/12/19 04:26:48;;;;;;;;;16.00;14.00;;;;;;;;5099338;27;45412;-74
2023/12/19 04:29:14;;;;;;;;;15.00;14.00;;;;;;;;5099461;27;45450;-85
2023/12/19 04:31:40;;;;;;;;;14.00;14.00;;;;;;;;5098144;27;45678;-79
2023/12/19 04:34:05;;;;;;;;;14.00;13.25;;;;;;;;5099616;27;45373;-85
2023/12/19 04:36:31;;;;;;;;;13.75;12.00;;;;;;;;5097771;27;46196;-84
2023/12/19 04:38:56;;;;;;;;;15.00;12.75;;;;;;;;5099244;27;45394;-73
2023/12/19 04:41:22;;;;;;;;;15.50;14.50;;;;;;;;5099614;27;46031;-73
2023/12/19 04:43:47;;;;;;;;;17.25;14.50;;;;;;;;5099401;27;45495;-72
2023/12/19 04:46:13;;;;;;;;;13.00;13.00;;;;;;;;5098948;27;45362;-73
2023/12/19 04:48:38;;;;;;;;;14.75;14.00;;;;;;;;5098885;27;45521;-76
2023/12/19 04:51:03;;;;;;;;;15.50;15.00;;;;;;;;5099287;27;45341;-73
2023/12/19 04:53:30;;;;;;;;;13.25;11.75;;;;;;;;5098908;27;45375;-73
2023/12/19 04:55:55;;;;;;;;;16.75;16.00;;;;;;;;5099180;27;45397;-84
2023/12/19 04:58:20;;;;;;;;;15.75;14.75;;;;;;;;5098775;27;45431;-83
2023/12/19 05:00:47;;;;;;;;;15.00;14.75;;;;;;;;5099056;27;46045;-84
2023/12/19 05:03:13;;;;;;;;;17.00;14.75;;;;;;;;5097768;27;45502;-73
2023/12/19 05:05:38;;;;;;;;;15.50;15.25;;;;;;;;5098384;27;45809;-73
2023/12/19 05:08:03;;;;;;;;;15.25;14.50;;;;;;;;5098797;27;45325;-73
2023/12/19 05:10:29;;;;;;;;;14.25;14.25;;;;;;;;5098860;27;45255;-73
2023/12/19 05:12:54;;;;;;;;;14.75;14.75;;;;;;;;5097195;27;45565;-84
2023/12/19 05:15:19;;;;;;;;;17.00;15.25;;;;;;;;5096915;27;45428;-73
2023/12/19 05:17:45;;;;;;;;;16.00;15.50;;;;;;;;5097984;27;45382;-85
2023/12/19 05:20:10;;;;;;;;;16.25;15.00;;;;;;;;5098110;27;45231;-73
2023/12/19 05:22:36;;;;;;;;;15.25;14.50;;;;;;;;5096904;27;45762;-73
2023/12/19 05:25:01;;;;;;;;;18.25;16.75;;;;;;;;5098260;27;46154;-73
2023/12/19 05:27:26;;;;;;;;;21.00;16.50;;;;;;;;5096011;27;45468;-84
2023/12/19 05:29:52;;;;;;;;;14.25;14.00;;;;;;;;5077766;27;45300;-74
2023/12/19 05:32:17;;;;;;;;;15.00;14.75;;;;;;;;5078004;27;45457;-72
2023/12/19 05:34:42;;;;;;;;;13.25;10.50;;;;;;;;5077755;27;45527;-83
2023/12/19 05:37:08;;;;;;;;;17.50;15.00;;;;;;;;5077773;27;45338;-74
2023/12/19 05:39:33;;;;;;;;;15.25;15.25;;;;;;;;5078159;27;45476;-84
2023/12/19 05:41:59;;;;;;;;;15.75;15.00;;;;;;;;5078244;27;45492;-73
2023/12/19 05:44:24;;;;;;;;;17.00;14.75;;;;;;;;5077828;27;45405;-73
2023/12/19 05:46:50;;;;;;;;;15.25;15.00;;;;;;;;5077824;27;45444;-81
2023/12/19 05:49:15;;;;;;;;;18.75;16.75;;;;;;;;5077935;27;45512;-73
2023/12/19 05:51:40;;;;;;;;;20.50;19.00;;;;;;;;5077969;27;45343;-78
2023/12/19 05:54:06;;;;;;;;;21.50;19.75;;;;;;;;5077382;27;46086;-76
2023/12/19 05:56:32;;;;;;;;;17.75;15.00;;;;;;;;5077427;27;45374;-73
2023/12/19 05:58:57;;;;;;;;;14.00;13.50;;;;;;;;5078096;27;45391;-83
2023/12/19 06:01:22;;;;;;;;;14.75;14.00;;;;;;;;5077904;27;45318;-77
2023/12/19 06:03:48;;;;;;;;;12.50;12.00;;;;;;;;5077496;27;45394;-77
2023/12/19 06:06:13;;;;;;;;;16.75;15.75;;;;;;;;5077364;27;45577;-73
2023/12/19 06:08:39;;;;;;;;;20.75;19.75;;;;;;;;5077565;27;45206;-73
2023/12/19 06:11:06;;;;;;;;;19.00;17.50;;;;;;;;5077693;27;45327;-72
2023/12/19 06:13:31;;;;;;;;;20.00;18.00;;;;;;;;5076292;27;46352;-73
2023/12/19 06:15:56;;;;;;;;;18.75;17.75;;;;;;;;5077487;27;45216;-74
2023/12/19 06:18:22;;;;;;;;;19.00;17.75;;;;;;;;5078487;27;45273;-72
2023/12/19 06:20:47;;;;;;;;;19.25;17.75;;;;;;;;5096966;27;45536;-72
2023/12/19 06:23:12;;;;;;;;;18.00;15.75;;;;;;;;5096662;27;45255;-72
2023/12/19 06:25:38;;;;;;;;;15.00;14.00;;;;;;;;5096421;27;45514;-72
2023/12/19 06:28:04;;;;;;;;;17.50;16.25;;;;;;;;5096697;27;45404;-82
2023/12/19 06:30:29;;;;;;;;;11.25;8.00;;;;;;;;5097289;27;45385;-71
2023/12/19 06:32:55;;;;;;;;;17.25;14.75;;;;;;;;5096545;27;45328;-71
2023/12/19 06:35:20;;;;;;;;;20.00;18.00;;;;;;;;5096527;27;45362;-72
2023/12/19 06:37:45;;;;;;;;;17.25;16.00;;;;;;;;5096863;27;45559;-72
2023/12/19 06:40:11;;;;;;;;;18.00;15.00;;;;;;;;5096873;27;45316;-79
2023/12/19 06:42:36;;;;;;;;;17.00;14.25;;;;;;;;5096593;27;45961;-72
2023/12/19 06:45:02;;;;;;;;;15.75;15.25;;;;;;;;5096626;27;45849;-73
2023/12/19 06:47:28;;;;;;;;;14.25;14.25;;;;;;;;5097114;27;45481;-76
2023/12/19 06:49:54;;;;;;;;;19.25;17.50;;;;;;;;5097117;27;45388;-83
2023/12/19 06:52:19;;;;;;;;;29.50;26.25;;;;;;;;5096150;27;45494;-82
2023/12/19 06:54:46;;;;;;;;;39.75;35.50;;;;;;;;5095906;27;45465;-83
2023/12/19 06:57:11;;;;;;;;;33.50;33.50;;;;;;;;5096709;27;45228;-83
2023/12/19 06:59:37;;;;;;;;;31.75;27.75;;;;;;;;5096692;27;45231;-84
2023/12/19 07:02:03;;;;;;;;;48.75;42.00;;;;;;;;5096395;27;46105;-84
2023/12/19 07:04:29;;;;;;;;;30.50;28.25;;;;;;;;5096466;27;45235;-78
2023/12/19 07:06:54;;;;;;;;;22.50;20.25;;;;;;;;5096324;27;45238;-85
2023/12/19 07:09:20;;;;;;;;;38.75;32.25;;;;;;;;5096587;27;45446;-85
2023/12/19 07:11:45;;;;;;;;;39.50;35.00;;;;;;;;5095845;27;46020;-80
2023/12/19 07:14:10;;;;;;;;;25.75;20.50;;;;;;;;5096189;27;46709;-84
2023/12/19 07:16:36;;;;;;;;;25.50;19.25;;;;;;;;5096317;27;45475;-84
2023/12/19 07:19:03;;;;;;;;;25.25;20.25;;;;;;;;5096681;27;45436;-84
2023/12/19 07:21:29;;;;;;;;;30.00;23.75;;;;;;;;5095984;27;45586;-84
2023/12/19 07:23:54;;;;;;;;;21.75;20.75;;;;;;;;5095797;27;45591;-73
2023/12/19 07:26:24;;;;;;;;;22.00;21.00;;;;;;;;5096416;27;45542;-84
2023/12/19 07:28:50;;;;;;;;;20.50;19.50;;;;;;;;5097427;27;45317;-82
2023/12/19 07:31:34;;;;;;;;;28.75;25.75;;;;;;;;5099228;27;45465;-83
2023/12/19 07:34:00;;;;;;;;;20.50;19.75;;;;;;;;5097279;27;45512;-82
2023/12/19 07:36:26;;;;;;;;;19.00;17.75;;;;;;;;5099388;27;45538;-76
2023/12/19 07:38:52;;;;;;;;;24.75;23.50;;;;;;;;5098213;27;45353;-83
2023/12/19 07:41:18;;;;;;;;;36.50;32.75;;;;;;;;5099155;27;46105;-72
2023/12/19 07:43:43;;;;;;;;;26.00;24.25;;;;;;;;5097867;27;45523;-83
2023/12/19 07:46:09;;;;;;;;;20.75;19.00;;;;;;;;5099265;27;45429;-82
2023/12/19 07:48:35;;;;;;;;;9.25;9.00;;;;;;;;5099445;27;45451;-82
2023/12/19 07:51:00;;;;;;;;;11.50;7.75;;;;;;;;5099588;27;45237;-83
2023/12/19 07:53:26;;;;;;;;;24.00;20.75;;;;;;;;5098926;27;45428;-83
2023/12/19 07:55:52;;;;;;;;;31.00;25.50;;;;;;;;5097888;27;45482;-84
2023/12/19 07:58:17;;;;;;;;;19.50;17.25;;;;;;;;5099539;27;45378;-85
2023/12/19 08:00:42;;;;;;;;;18.50;17.25;;;;;;;;5098692;27;46114;-83
2023/12/19 08:03:08;;;;;;;;;20.50;19.00;;;;;;;;5098641;27;45489;-73
2023/12/19 08:05:33;;;;;;;;;20.25;18.50;;;;;;;;5099072;27;45590;-73
2023/12/19 08:07:59;;;;;;;;;12.75;12.75;;;;;;;;5099647;27;45629;-73
2023/12/19 08:10:24;;;;;;;;;27.00;22.75;;;;;;;;5098938;27;45450;-79
2023/12/19 08:12:50;;;;;;;;;28.00;27.75;;;;;;;;5098736;27;45291;-83
2023/12/19 08:15:15;;;;;;;;;30.50;27.75;;;;;;;;5098919;27;45329;-84
2023/12/19 08:17:41;;;;;;;;;37.25;33.50;;;;;;;;5099125;27;46695;-83
2023/12/19 08:20:10;;;;;;;;;27.25;26.50;;;;;;;;5096231;27;45632;-83
2023/12/19 08:22:35;;;;;;;;;10.75;8.00;;;;;;;;5098796;27;45493;-72
2023/12/19 08:25:01;;;;;;;;;26.25;25.50;;;;;;;;5098752;27;45451;-72
2023/12/19 08:27:28;;;;;;;;;30.25;27.00;;;;;;;;5096115;27;45216;-83
2023/12/19 08:29:53;;;;;;;;;24.75;22.00;;;;;;;;5098739;27;45356;-71
2023/12/19 08:32:19;;;;;;;;;20.00;19.25;;;;;;;;5098341;27;45594;-73
2023/12/19 08:34:45;;;;;;;;;22.50;20.25;;;;;;;;5097054;27;45465;-71
2023/12/19 08:37:11;;;;;;;;;27.50;27.50;;;;;;;;5098092;27;45425;-72
2023/12/19 08:39:37;;;;;;;;;33.25;29.75;;;;;;;;5097932;27;45338;-72
2023/12/19 08:42:03;;;;;;;;;41.75;36.50;;;;;;;;5098319;27;45459;-74
2023/12/19 08:44:28;;;;;;;;;26.50;22.00;;;;;;;;5098493;27;45445;-72
2023/12/19 08:46:54;;;;;;;;;26.50;22.00;;;;;;;;5098166;27;45467;-72
2023/12/19 08:49:19;;;;;;;;;24.50;20.75;;;;;;;;5097960;27;45486;-72
2023/12/19 08:51:46;;;;;;;;;28.25;25.50;;;;;;;;5098011;27;45453;-71
2023/12/19 08:54:11;;;;;;;;;34.25;32.50;;;;;;;;5096493;27;45479;-72
2023/12/19 08:56:37;;;;;;;;;39.75;36.25;;;;;;;;5098356;27;45491;-72
2023/12/19 08:59:02;;;;;;;;;55.25;46.25;;;;;;;;5099046;27;46081;-72
2023/12/19 09:01:28;;;;;;;;;50.00;42.50;;;;;;;;5097950;27;45469;-72
2023/12/19 09:03:53;;;;;;;;;39.50;35.00;;;;;;;;5098514;27;45653;-72
2023/12/19 09:06:19;;;;;;;;;38.50;34.50;;;;;;;;5098582;27;45332;-71
2023/12/19 09:08:44;;;;;;;;;30.50;25.25;;;;;;;;5098233;27;45883;-71
2023/12/19 09:11:10;;;;;;;;;38.25;34.25;;;;;;;;5098468;27;45413;-74
2023/12/19 09:13:38;;;;;;;;;34.25;30.50;;;;;;;;5098692;27;45471;-71
2023/12/19 09:16:06;;;;;;;;;33.00;29.00;;;;;;;;5099059;27;45428;-72
2023/12/19 09:18:31;;;;;;;;;20.75;19.75;;;;;;;;5097656;27;46195;-74
2023/12/19 09:20:57;;;;;;;;;32.00;29.50;;;;;;;;5097765;27;45471;-72
2023/12/19 09:23:22;;;;;;;;;34.50;29.50;;;;;;;;5096201;27;45395;-73
2023/12/19 09:25:47;;;;;;;;;25.50;24.25;;;;;;;;5097795;27;45332;-70
2023/12/19 09:28:13;;;;;;;;;30.50;28.00;;;;;;;;5097513;27;46099;-72
2023/12/19 09:30:38;;;;;;;;;30.00;28.00;;;;;;;;5097390;27;45468;-73
2023/12/19 09:33:03;;;;;;;;;45.50;37.50;;;;;;;;5097832;27;45888;-73
2023/12/19 09:35:30;;;;;;;;;39.50;33.25;;;;;;;;5097638;27;45505;-73
2023/12/19 09:38:01;;;;;;;;;54.75;42.25;;;;;;;;5097048;27;46098;-73
2023/12/19 09:40:29;;;;;;;;;35.75;30.75;;;;;;;;5097327;27;45516;-75
2023/12/19 09:42:55;;;;;;;;;29.00;28.75;;;;;;;;5094753;27;45469;-82
2023/12/19 09:45:21;;;;;;;;;26.00;24.50;;;;;;;;5097276;27;45307;-76
2023/12/19 09:47:58;;;;;;;;;29.50;29.00;;;;;;;;5096592;27;46074;-73
2023/12/19 09:50:25;;;;;;;;;24.50;23.00;;;;;;;;5097121;27;45391;-73
2023/12/19 09:52:50;;;;;;;;;32.00;30.75;;;;;;;;5097853;27;45440;-73
2023/12/19 09:55:16;;;;;;;;;36.75;35.00;;;;;;;;5097935;27;45401;-78
2023/12/19 09:57:43;;;;;;;;;33.25;30.50;;;;;;;;5097665;27;46180;-73
2023/12/19 10:00:09;;;;;;;;;29.00;27.00;;;;;;;;5097545;27;45500;-73
2023/12/19 10:02:35;;;;;;;;;21.25;19.00;;;;;;;;5098167;27;45638;-73
2023/12/19 10:05:00;;;;;;;;;20.50;19.00;;;;;;;;5097810;27;45236;-73
2023/12/19 10:07:29;;;;;;;;;20.00;19.75;;;;;;;;5097653;27;46275;-72
2023/12/19 10:09:54;;;;;;;;;35.00;30.50;;;;;;;;5097718;27;45210;-70
2023/12/19 10:12:20;;;;;;;;;30.00;27.75;;;;;;;;5097611;27;45641;-72
2023/12/19 10:14:47;;;;;;;;;31.50;27.25;;;;;;;;5097842;27;45426;-72
2023/12/19 10:17:17;;;;;;;;;30.00;28.00;;;;;;;;5097434;27;45314;-72
2023/12/19 10:19:43;;;;;;;;;25.00;24.50;;;;;;;;5097442;27;45433;-73
2023/12/19 10:22:10;;;;;;;;;24.00;22.25;;;;;;;;5097387;27;45344;-73
2023/12/19 10:24:35;;;;;;;;;21.00;20.00;;;;;;;;5097902;27;45498;-72
2023/12/19 10:27:02;;;;;;;;;22.00;19.50;;;;;;;;5097133;27;46154;-72
2023/12/19 10:29:35;;;;;;;;;20.75;18.50;;;;;;;;5097453;27;45217;-72
2023/12/19 10:32:10;;;;;;;;;33.75;32.25;;;;;;;;5097498;27;45477;-72
2023/12/19 10:34:36;;;;;;;;;40.75;33.50;;;;;;;;5097564;27;45267;-72
2023/12/19 10:37:15;;;;;;;;;43.25;38.75;;;;;;;;5097184;27;46262;-72
2023/12/19 10:39:42;;;;;;;;;27.00;22.75;;;;;;;;5097184;27;45486;-72
2023/12/19 10:42:09;;;;;;;;;30.00;27.50;;;;;;;;5097484;27;45497;-72
2023/12/19 10:44:36;;;;;;;;;28.00;24.75;;;;;;;;5097806;27;45316;-72
2023/12/19 10:47:03;;;;;;;;;21.50;20.25;;;;;;;;5096891;27;46132;-72
2023/12/19 10:49:29;;;;;;;;;19.25;17.50;;;;;;;;5097085;27;46203;-72
2023/12/19 10:51:56;;;;;;;;;23.25;21.00;;;;;;;;5097137;27;45528;-72
2023/12/19 10:54:24;;;;;;;;;19.25;19.00;;;;;;;;5097286;27;45503;-72
2023/12/19 10:57:00;;;;;;;;;27.50;21.50;;;;;;;;5097040;27;46189;-72
2023/12/19 10:59:30;;;;;;;;;22.75;21.25;;;;;;;;5097274;27;45282;-72
2023/12/19 11:02:19;;;;;;;;;20.50;19.25;;;;;;;;5100959;27;45455;-72
2023/12/19 11:04:50;;;;;;;;;17.75;16.50;;;;;;;;5089915;27;45357;-72
2023/12/19 11:07:17;;;;;;;;;21.50;20.75;;;;;;;;5100432;27;45974;-72
2023/12/19 11:09:46;;;;;;;;;23.00;21.25;;;;;;;;5100458;27;45372;-72
2023/12/19 11:12:12;;;;;;;;;23.50;22.50;;;;;;;;5100953;27;45493;-72
2023/12/19 11:14:39;;;;;;;;;20.75;18.75;;;;;;;;5100849;27;45216;-72
2023/12/19 11:17:17;;;;;;;;;21.75;19.50;;;;;;;;5100279;27;45525;-73
2023/12/19 11:19:54;;;;;;;;;29.50;25.75;;;;;;;;5100261;27;45453;-72
2023/12/19 11:22:31;;;;;;;;;28.00;24.25;;;;;;;;5100505;27;45449;-72
2023/12/19 11:25:14;;;;;;;;;16.00;15.75;;;;;;;;5100312;27;45383;-72
2023/12/19 11:27:43;;;;;;;;;15.75;14.00;;;;;;;;5100331;27;46181;-72
2023/12/19 11:30:28;;;;;;;;;16.50;15.00;;;;;;;;5100520;27;45486;-72
2023/12/19 11:32:54;;;;;;;;;16.75;15.50;;;;;;;;5096077;27;45287;-72
2023/12/19 11:35:19;;;;;;;;;18.25;17.75;;;;;;;;5100303;27;45399;-72
2023/12/19 11:37:45;;;;;;;;;14.00;14.00;;;;;;;;5099970;27;45490;-72
2023/12/19 11:40:29;;;;;;;;;16.25;14.25;;;;;;;;5100449;27;45328;-72
2023/12/19 11:42:54;;;;;;;;;23.00;18.25;;;;;;;;5098727;27;45496;-72
2023/12/19 11:45:20;;;;;;;;;32.50;31.25;;;;;;;;5100211;27;45389;-72
2023/12/19 11:47:47;;;;;;;;;24.00;21.25;;;;;;;;5099837;27;45308;-72
2023/12/19 11:50:32;;;;;;;;;28.50;26.50;;;;;;;;5100146;27;46000;-72
2023/12/19 11:52:58;;;;;;;;;24.00;23.75;;;;;;;;5099757;27;45425;-72
2023/12/19 11:55:24;;;;;;;;;16.75;15.25;;;;;;;;5099821;27;45224;-72
2023/12/19 11:57:50;;;;;;;;;20.25;19.25;;;;;;;;5099794;27;45441;-72
2023/12/19 12:00:15;;;;;;;;;14.25;14.00;;;;;;;;5099703;27;45393;-72
2023/12/19 12:02:40;;;;;;;;;24.50;23.25;;;;;;;;5100074;27;45468;-72
2023/12/19 12:05:13;;;;;;;;;30.25;28.75;;;;;;;;5099980;27;45316;-72
2023/12/19 12:07:40;;;;;;;;;21.00;20.50;;;;;;;;5099643;27;45288;-72
2023/12/19 12:10:06;;;;;;;;;19.75;19.00;;;;;;;;5099280;27;45464;-72
2023/12/19 12:12:35;;;;;;;;;18.75;17.50;;;;;;;;5098860;27;45202;-71
2023/12/19 12:15:18;;;;;;;;;16.00;15.25;;;;;;;;5099571;27;45332;-72
2023/12/19 12:17:44;;;;;;;;;19.75;19.25;;;;;;;;5099607;27;46307;-72
2023/12/19 12:20:10;;;;;;;;;17.25;16.75;;;;;;;;5099516;27;45334;-72
2023/12/19 12:22:35;;;;;;;;;20.75;18.75;;;;;;;;5099656;27;45329;-72
2023/12/19 12:25:01;;;;;;;;;19.50;18.00;;;;;;;;5099987;27;45479;-72
2023/12/19 12:27:27;;;;;;;;;14.00;13.75;;;;;;;;5099205;27;46027;-72
2023/12/19 12:29:53;;;;;;;;;22.25;19.50;;;;;;;;5099159;27;45180;-72
2023/12/19 12:32:18;;;;;;;;;19.00;16.75;;;;;;;;5099407;27;45348;-72
2023/12/19 12:34:46;;;;;;;;;31.50;27.25;;;;;;;;5099908;27;45326;-72
2023/12/19 12:37:15;;;;;;;;;24.00;24.00;;;;;;;;5098265;27;45590;-72
2023/12/19 12:39:40;;;;;;;;;37.25;33.25;;;;;;;;5098937;27;45416;-72
2023/12/19 12:42:06;;;;;;;;;28.00;27.25;;;;;;;;5099090;27;45454;-72
2023/12/19 12:44:32;;;;;;;;;30.50;28.00;;;;;;;;5098125;27;45528;-72
2023/12/19 12:46:57;;;;;;;;;20.00;17.75;;;;;;;;5099074;27;45459;-72
2023/12/19 12:49:23;;;;;;;;;24.00;22.75;;;;;;;;5099046;27;45543;-73
2023/12/19 12:51:54;;;;;;;;;26.50;24.75;;;;;;;;5099169;27;45247;-72
2023/12/19 12:54:20;;;;;;;;;20.50;19.75;;;;;;;;5098917;27;45459;-72
2023/12/19 12:56:45;;;;;;;;;16.25;16.00;;;;;;;;5099060;27;45968;-72
2023/12/19 12:59:14;;;;;;;;;18.25;18.25;;;;;;;;5098911;27;45432;-72
2023/12/19 13:01:40;;;;;;;;;15.25;14.75;;;;;;;;5098928;27;45444;-72
2023/12/19 13:04:07;;;;;;;;;15.50;14.50;;;;;;;;5099080;27;45427;-72
2023/12/19 13:06:35;;;;;;;;;29.25;27.25;;;;;;;;5098441;27;45404;-72
2023/12/19 13:09:01;;;;;;;;;38.25;35.50;;;;;;;;5098652;27;45487;-71
2023/12/19 13:11:26;;;;;;;;;18.00;17.75;;;;;;;;5097948;27;45422;-76
2023/12/19 13:13:52;;;;;;;;;18.00;16.50;;;;;;;;5097476;27;45465;-71
2023/12/19 13:16:17;;;;;;;;;23.50;22.00;;;;;;;;5098581;27;45425;-71
2023/12/19 13:18:47;;;;;;;;;29.75;27.50;;;;;;;;5084445;27;45432;-77
2023/12/19 13:21:12;;;;;;;;;23.25;22.50;;;;;;;;5077825;27;45504;-81
2023/12/19 13:23:39;;;;;;;;;21.50;20.50;;;;;;;;5076280;27;45398;-80
2023/12/19 13:26:04;;;;;;;;;22.50;22.25;;;;;;;;5076154;28;46483;-81
2023/12/19 13:28:30;;;;;;;;;21.25;19.50;;;;;;;;5077257;27;45355;-71
2023/12/19 13:30:56;;;;;;;;;22.25;21.00;;;;;;;;5077894;27;45378;-71
2023/12/19 13:33:22;;;;;;;;;18.50;17.50;;;;;;;;5077422;27;45347;-75
2023/12/19 13:35:47;;;;;;;;;21.00;19.00;;;;;;;;5077825;27;45560;-73
2023/12/19 13:38:15;;;;;;;;;21.25;20.00;;;;;;;;5077599;27;45953;-72
2023/12/19 13:40:41;;;;;;;;;22.00;21.00;;;;;;;;5077900;27;45234;-71
2023/12/19 13:43:06;;;;;;;;;23.25;21.25;;;;;;;;5077813;27;45384;-71
2023/12/19 13:45:33;;;;;;;;;19.75;19.25;;;;;;;;5077573;27;46126;-71
2023/12/19 13:47:59;;;;;;;;;26.00;24.50;;;;;;;;5077758;27;45612;-71
2023/12/19 13:50:26;;;;;;;;;26.50;23.25;;;;;;;;5077683;27;45406;-71
2023/12/19 13:52:51;;;;;;;;;23.25;23.00;;;;;;;;5077959;27;45426;-71
2023/12/19 13:55:16;;;;;;;;;23.25;22.00;;;;;;;;5077779;27;45952;-71
2023/12/19 13:57:42;;;;;;;;;16.50;14.75;;;;;;;;5077668;27;45273;-71
2023/12/19 14:00:14;;;;;;;;;21.75;19.00;;;;;;;;5077772;27;45865;-71
2023/12/19 14:02:40;;;;;;;;;20.50;19.75;;;;;;;;5077840;27;45798;-72
2023/12/19 14:05:06;;;;;;;;;20.75;19.75;;;;;;;;5076976;27;45934;-71
2023/12/19 14:07:32;;;;;;;;;20.50;18.00;;;;;;;;5077448;27;45493;-71
2023/12/19 14:09:58;;;;;;;;;14.00;14.00;;;;;;;;5077471;27;45337;-71
2023/12/19 14:12:23;;;;;;;;;17.00;17.00;;;;;;;;5077661;27;45508;-72